sensor_id;sensor_type;location;lat;lon;timestamp;P1;durP1;ratioP1;P2;durP2;ratioP2
8104;SDS011;4095;48.942;9.104;2022-09-20T00:01:53;3.93;;;3.20;;
8104;SDS011;4095;48.942;9.104;2022-09-20T00:04:19;4.33;;;3.10;;
8104;SDS011;4095;48.942;9.104;2022-09-20T00:06:44;4.67;;;3.50;;
8104;SDS011;4095;48.942;9.104;2022-09-20T00:09:10;4.67;;;3.30;;
8104;SDS011;4095;48.942;9.104;2022-09-20T00:11:36;5.40;;;3.27;;
8104;SDS011;4095;48.942;9.104;2022-09-20T00:14:03;6.90;;;3.13;;
8104;SDS011;4095;48.942;9.104;2022-09-20T00:16:33;4.43;;;3.00;;
8104;SDS011;4095;48.942;9.104;2022-09-20T00:19:03;5.43;;;3.13;;
8104;SDS011;4095;48.942;9.104;2022-09-20T00:21:30;5.00;;;2.93;;
8104;SDS011;4095;48.942;9.104;2022-09-20T00:23:57;6.93;;;3.70;;
8104;SDS011;4095;48.942;9.104;2022-09-20T00:26:23;6.33;;;3.40;;
8104;SDS011;4095;48.942;9.104;2022-09-20T00:28:50;4.47;;;3.40;;
8104;SDS011;4095;48.942;9.104;2022-09-20T00:31:16;4.73;;;2.90;;
8104;SDS011;4095;48.942;9.104;2022-09-20T00:33:41;5.60;;;3.23;;
8104;SDS011;4095;48.942;9.104;2022-09-20T00:36:25;5.47;;;3.13;;
8104;SDS011;4095;48.942;9.104;2022-09-20T00:38:55;4.10;;;3.03;;
8104;SDS011;4095;48.942;9.104;2022-09-20T00:41:22;4.33;;;2.87;;
8104;SDS011;4095;48.942;9.104;2022-09-20T00:43:47;5.10;;;2.80;;
8104;SDS011;4095;48.942;9.104;2022-09-20T00:46:17;5.23;;;2.80;;
8104;SDS011;4095;48.942;9.104;2022-09-20T00:48:44;4.63;;;2.80;;
8104;SDS011;4095;48.942;9.104;2022-09-20T00:51:11;5.07;;;3.07;;
8104;SDS011;4095;48.942;9.104;2022-09-20T00:53:42;4.57;;;2.90;;
8104;SDS011;4095;48.942;9.104;2022-09-20T00:56:15;6.73;;;3.23;;
8104;SDS011;4095;48.942;9.104;2022-09-20T00:58:45;4.53;;;2.97;;
8104;SDS011;4095;48.942;9.104;2022-09-20T01:01:18;6.00;;;3.57;;
8104;SDS011;4095;48.942;9.104;2022-09-20T01:03:44;7.77;;;3.67;;
8104;SDS011;4095;48.942;9.104;2022-09-20T01:06:12;6.17;;;2.93;;
8104;SDS011;4095;48.942;9.104;2022-09-20T01:08:39;6.20;;;3.00;;
8104;SDS011;4095;48.942;9.104;2022-09-20T01:11:09;6.37;;;3.03;;
8104;SDS011;4095;48.942;9.104;2022-09-20T01:13:35;6.33;;;2.90;;
8104;SDS011;4095;48.942;9.104;2022-09-20T01:16:00;4.57;;;2.90;;
8104;SDS011;4095;48.942;9.104;2022-09-20T01:18:28;7.70;;;3.20;;
8104;SDS011;4095;48.942;9.104;2022-09-20T01:20:55;5.43;;;3.20;;
8104;SDS011;4095;48.942;9.104;2022-09-20T01:28:40;5.80;;;3.23;;
8104;SDS011;4095;48.942;9.104;2022-09-20T01:31:25;4.37;;;2.90;;
8104;SDS011;4095;48.942;9.104;2022-09-20T01:37:03;5.90;;;3.30;;
8104;SDS011;4095;48.942;9.104;2022-09-20T01:42:25;6.20;;;3.10;;
8104;SDS011;4095;48.942;9.104;2022-09-20T01:48:08;6.30;;;2.80;;
8104;SDS011;4095;48.942;9.104;2022-09-20T01:50:35;7.00;;;3.20;;
8104;SDS011;4095;48.942;9.104;2022-09-20T02:01:53;6.33;;;2.60;;
8104;SDS011;4095;48.942;9.104;2022-09-20T02:13:02;4.03;;;2.83;;
8104;SDS011;4095;48.942;9.104;2022-09-20T02:15:38;5.23;;;2.80;;
8104;SDS011;4095;48.942;9.104;2022-09-20T02:18:37;6.47;;;2.50;;
8104;SDS011;4095;48.942;9.104;2022-09-20T02:21:29;6.17;;;3.00;;
8104;SDS011;4095;48.942;9.104;2022-09-20T02:41:17;5.33;;;2.63;;
8104;SDS011;4095;48.942;9.104;2022-09-20T02:46:52;5.00;;;2.67;;
8104;SDS011;4095;48.942;9.104;2022-09-20T02:49:34;6.03;;;2.73;;
8104;SDS011;4095;48.942;9.104;2022-09-20T02:52:22;4.27;;;2.60;;
8104;SDS011;4095;48.942;9.104;2022-09-20T02:57:43;5.37;;;2.53;;
8104;SDS011;4095;48.942;9.104;2022-09-20T03:00:32;5.47;;;2.40;;
8104;SDS011;4095;48.942;9.104;2022-09-20T03:03:14;5.47;;;2.60;;
8104;SDS011;4095;48.942;9.104;2022-09-20T03:06:00;3.77;;;2.40;;
8104;SDS011;4095;48.942;9.104;2022-09-20T03:11:36;4.37;;;2.50;;
8104;SDS011;4095;48.942;9.104;2022-09-20T03:14:19;5.33;;;2.57;;
8104;SDS011;4095;48.942;9.104;2022-09-20T03:16:58;5.83;;;3.00;;
8104;SDS011;4095;48.942;9.104;2022-09-20T03:19:38;4.50;;;2.50;;
8104;SDS011;4095;48.942;9.104;2022-09-20T03:46:44;5.10;;;2.73;;
8104;SDS011;4095;48.942;9.104;2022-09-20T03:49:31;6.20;;;3.00;;
8104;SDS011;4095;48.942;9.104;2022-09-20T03:52:34;5.63;;;2.40;;
8104;SDS011;4095;48.942;9.104;2022-09-20T04:00:20;6.37;;;2.40;;
8104;SDS011;4095;48.942;9.104;2022-09-20T04:14:33;3.57;;;2.70;;
8104;SDS011;4095;48.942;9.104;2022-09-20T04:17:20;4.57;;;2.63;;
8104;SDS011;4095;48.942;9.104;2022-09-20T04:20:16;4.37;;;2.67;;
8104;SDS011;4095;48.942;9.104;2022-09-20T04:22:55;3.90;;;2.40;;
8104;SDS011;4095;48.942;9.104;2022-09-20T04:25:27;4.27;;;2.63;;
8104;SDS011;4095;48.942;9.104;2022-09-20T04:27:58;4.13;;;2.67;;
8104;SDS011;4095;48.942;9.104;2022-09-20T04:30:34;7.33;;;2.70;;
8104;SDS011;4095;48.942;9.104;2022-09-20T04:33:17;4.03;;;2.53;;
8104;SDS011;4095;48.942;9.104;2022-09-20T04:39:03;5.20;;;2.50;;
8104;SDS011;4095;48.942;9.104;2022-09-20T04:41:50;5.57;;;2.50;;
8104;SDS011;4095;48.942;9.104;2022-09-20T04:59:06;5.83;;;2.83;;
8104;SDS011;4095;48.942;9.104;2022-09-20T05:01:56;7.97;;;2.70;;
8104;SDS011;4095;48.942;9.104;2022-09-20T05:16:03;9.53;;;3.10;;
8104;SDS011;4095;48.942;9.104;2022-09-20T05:41:35;5.00;;;2.30;;
8104;SDS011;4095;48.942;9.104;2022-09-20T05:44:14;7.93;;;2.93;;
8104;SDS011;4095;48.942;9.104;2022-09-20T05:46:54;5.87;;;2.83;;
8104;SDS011;4095;48.942;9.104;2022-09-20T05:49:40;6.67;;;2.57;;
8104;SDS011;4095;48.942;9.104;2022-09-20T05:52:32;5.43;;;3.03;;
8104;SDS011;4095;48.942;9.104;2022-09-20T05:58:02;5.63;;;2.50;;
8104;SDS011;4095;48.942;9.104;2022-09-20T06:00:33;5.90;;;2.70;;
8104;SDS011;4095;48.942;9.104;2022-09-20T06:14:35;8.27;;;3.10;;
8104;SDS011;4095;48.942;9.104;2022-09-20T06:17:28;5.27;;;2.50;;
8104;SDS011;4095;48.942;9.104;2022-09-20T06:22:57;8.10;;;2.93;;
8104;SDS011;4095;48.942;9.104;2022-09-20T06:25:33;6.67;;;2.87;;
8104;SDS011;4095;48.942;9.104;2022-09-20T06:28:21;7.27;;;2.87;;
8104;SDS011;4095;48.942;9.104;2022-09-20T06:30:52;4.83;;;2.67;;
8104;SDS011;4095;48.942;9.104;2022-09-20T06:33:23;6.97;;;2.83;;
8104;SDS011;4095;48.942;9.104;2022-09-20T06:35:58;4.97;;;2.70;;
8104;SDS011;4095;48.942;9.104;2022-09-20T06:41:51;8.13;;;2.80;;
8104;SDS011;4095;48.942;9.104;2022-09-20T06:44:18;5.80;;;2.90;;
8104;SDS011;4095;48.942;9.104;2022-09-20T06:46:43;8.27;;;3.00;;
8104;SDS011;4095;48.942;9.104;2022-09-20T06:49:09;7.37;;;2.70;;
8104;SDS011;4095;48.942;9.104;2022-09-20T06:51:35;8.33;;;2.33;;
8104;SDS011;4095;48.942;9.104;2022-09-20T06:54:02;6.00;;;2.60;;
8104;SDS011;4095;48.942;9.104;2022-09-20T06:56:30;4.63;;;2.50;;
8104;SDS011;4095;48.942;9.104;2022-09-20T06:59:00;6.50;;;2.47;;
8104;SDS011;4095;48.942;9.104;2022-09-20T07:01:27;3.77;;;2.30;;
8104;SDS011;4095;48.942;9.104;2022-09-20T07:03:52;7.23;;;2.50;;
8104;SDS011;4095;48.942;9.104;2022-09-20T07:06:18;5.97;;;2.43;;
8104;SDS011;4095;48.942;9.104;2022-09-20T07:08:44;5.57;;;2.67;;
8104;SDS011;4095;48.942;9.104;2022-09-20T07:11:14;8.13;;;2.57;;
8104;SDS011;4095;48.942;9.104;2022-09-20T07:13:44;5.40;;;2.50;;
8104;SDS011;4095;48.942;9.104;2022-09-20T07:16:14;4.30;;;2.10;;
8104;SDS011;4095;48.942;9.104;2022-09-20T07:18:39;7.33;;;2.90;;
8104;SDS011;4095;48.942;9.104;2022-09-20T07:21:13;5.23;;;2.63;;
8104;SDS011;4095;48.942;9.104;2022-09-20T07:23:40;5.60;;;2.77;;
8104;SDS011;4095;48.942;9.104;2022-09-20T07:26:06;6.13;;;2.70;;
8104;SDS011;4095;48.942;9.104;2022-09-20T07:28:40;7.67;;;2.77;;
8104;SDS011;4095;48.942;9.104;2022-09-20T07:31:06;5.60;;;2.50;;
8104;SDS011;4095;48.942;9.104;2022-09-20T07:33:31;5.87;;;2.80;;
8104;SDS011;4095;48.942;9.104;2022-09-20T07:35:57;4.90;;;2.33;;
8104;SDS011;4095;48.942;9.104;2022-09-20T07:38:22;8.93;;;3.83;;
8104;SDS011;4095;48.942;9.104;2022-09-20T07:40:57;8.33;;;2.73;;
8104;SDS011;4095;48.942;9.104;2022-09-20T07:43:25;8.10;;;2.93;;
8104;SDS011;4095;48.942;9.104;2022-09-20T07:45:51;8.40;;;2.60;;
8104;SDS011;4095;48.942;9.104;2022-09-20T07:48:18;4.37;;;2.30;;
8104;SDS011;4095;48.942;9.104;2022-09-20T07:50:51;6.43;;;2.70;;
8104;SDS011;4095;48.942;9.104;2022-09-20T07:53:21;9.60;;;3.03;;
8104;SDS011;4095;48.942;9.104;2022-09-20T07:58:36;9.80;;;2.83;;
8104;SDS011;4095;48.942;9.104;2022-09-20T08:01:03;6.50;;;2.53;;
8104;SDS011;4095;48.942;9.104;2022-09-20T08:03:32;7.73;;;2.70;;
8104;SDS011;4095;48.942;9.104;2022-09-20T08:05:59;5.00;;;2.43;;
8104;SDS011;4095;48.942;9.104;2022-09-20T08:08:26;6.70;;;2.53;;
8104;SDS011;4095;48.942;9.104;2022-09-20T08:10:53;6.63;;;2.30;;
8104;SDS011;4095;48.942;9.104;2022-09-20T08:13:26;4.73;;;2.27;;
8104;SDS011;4095;48.942;9.104;2022-09-20T08:15:59;6.70;;;2.20;;
8104;SDS011;4095;48.942;9.104;2022-09-20T08:18:26;6.40;;;2.07;;
8104;SDS011;4095;48.942;9.104;2022-09-20T08:20:52;8.40;;;2.50;;
8104;SDS011;4095;48.942;9.104;2022-09-20T08:23:18;5.33;;;2.47;;
8104;SDS011;4095;48.942;9.104;2022-09-20T08:25:43;7.23;;;2.00;;
8104;SDS011;4095;48.942;9.104;2022-09-20T08:28:09;4.67;;;1.90;;
8104;SDS011;4095;48.942;9.104;2022-09-20T08:30:34;5.57;;;2.27;;
8104;SDS011;4095;48.942;9.104;2022-09-20T08:33:02;4.33;;;1.73;;
8104;SDS011;4095;48.942;9.104;2022-09-20T08:35:28;6.93;;;2.00;;
8104;SDS011;4095;48.942;9.104;2022-09-20T08:37:54;4.53;;;1.60;;
8104;SDS011;4095;48.942;9.104;2022-09-20T08:40:20;7.07;;;1.73;;
8104;SDS011;4095;48.942;9.104;2022-09-20T08:42:48;4.13;;;1.70;;
8104;SDS011;4095;48.942;9.104;2022-09-20T08:45:14;7.60;;;2.10;;
8104;SDS011;4095;48.942;9.104;2022-09-20T08:47:50;3.83;;;1.80;;
8104;SDS011;4095;48.942;9.104;2022-09-20T08:50:20;3.57;;;1.63;;
8104;SDS011;4095;48.942;9.104;2022-09-20T08:52:47;6.03;;;1.97;;
8104;SDS011;4095;48.942;9.104;2022-09-20T08:55:20;4.23;;;1.70;;
8104;SDS011;4095;48.942;9.104;2022-09-20T08:57:52;8.80;;;2.00;;
8104;SDS011;4095;48.942;9.104;2022-09-20T09:00:21;5.27;;;1.80;;
8104;SDS011;4095;48.942;9.104;2022-09-20T09:02:51;4.03;;;1.67;;
8104;SDS011;4095;48.942;9.104;2022-09-20T09:05:35;4.13;;;1.80;;
8104;SDS011;4095;48.942;9.104;2022-09-20T09:08:08;3.57;;;1.60;;
8104;SDS011;4095;48.942;9.104;2022-09-20T09:10:40;7.00;;;2.03;;
8104;SDS011;4095;48.942;9.104;2022-09-20T09:13:23;3.53;;;1.60;;
8104;SDS011;4095;48.942;9.104;2022-09-20T09:15:59;6.03;;;2.00;;
8104;SDS011;4095;48.942;9.104;2022-09-20T09:18:34;5.50;;;1.57;;
8104;SDS011;4095;48.942;9.104;2022-09-20T09:21:02;4.83;;;1.83;;
8104;SDS011;4095;48.942;9.104;2022-09-20T09:23:28;6.10;;;2.00;;
8104;SDS011;4095;48.942;9.104;2022-09-20T09:26:00;5.67;;;1.77;;
8104;SDS011;4095;48.942;9.104;2022-09-20T09:28:29;5.17;;;1.93;;
8104;SDS011;4095;48.942;9.104;2022-09-20T09:31:18;8.63;;;2.20;;
8104;SDS011;4095;48.942;9.104;2022-09-20T09:33:52;9.47;;;2.07;;
8104;SDS011;4095;48.942;9.104;2022-09-20T09:36:21;6.23;;;2.30;;
8104;SDS011;4095;48.942;9.104;2022-09-20T09:38:49;3.63;;;1.60;;
8104;SDS011;4095;48.942;9.104;2022-09-20T09:41:29;4.60;;;1.57;;
8104;SDS011;4095;48.942;9.104;2022-09-20T09:44:01;4.00;;;1.50;;
8104;SDS011;4095;48.942;9.104;2022-09-20T09:46:33;5.63;;;1.63;;
8104;SDS011;4095;48.942;9.104;2022-09-20T09:49:54;4.97;;;1.90;;
8104;SDS011;4095;48.942;9.104;2022-09-20T09:52:11;5.67;;;2.10;;
8104;SDS011;4095;48.942;9.104;2022-09-20T09:54:41;4.97;;;1.80;;
8104;SDS011;4095;48.942;9.104;2022-09-20T10:05:39;5.37;;;1.93;;
8104;SDS011;4095;48.942;9.104;2022-09-20T10:11:29;4.57;;;1.80;;
8104;SDS011;4095;48.942;9.104;2022-09-20T10:14:07;5.90;;;2.00;;
8104;SDS011;4095;48.942;9.104;2022-09-20T10:19:55;4.97;;;2.23;;
8104;SDS011;4095;48.942;9.104;2022-09-20T10:36:29;6.37;;;2.00;;
8104;SDS011;4095;48.942;9.104;2022-09-20T10:47:40;7.83;;;2.10;;
8104;SDS011;4095;48.942;9.104;2022-09-20T10:50:35;5.93;;;1.80;;
8104;SDS011;4095;48.942;9.104;2022-09-20T11:04:46;3.73;;;1.80;;
8104;SDS011;4095;48.942;9.104;2022-09-20T11:10:13;4.63;;;2.00;;
8104;SDS011;4095;48.942;9.104;2022-09-20T11:13:04;4.17;;;1.70;;
8104;SDS011;4095;48.942;9.104;2022-09-20T11:21:27;4.47;;;1.80;;
8104;SDS011;4095;48.942;9.104;2022-09-20T11:29:00;6.00;;;1.80;;
8104;SDS011;4095;48.942;9.104;2022-09-20T11:31:35;5.90;;;1.80;;
8104;SDS011;4095;48.942;9.104;2022-09-20T11:36:49;5.65;;;1.80;;
8104;SDS011;4095;48.942;9.104;2022-09-20T11:39:24;4.78;;;1.63;;
8104;SDS011;4095;48.942;9.104;2022-09-20T11:42:05;4.03;;;1.50;;
8104;SDS011;4095;48.942;9.104;2022-09-20T11:44:39;5.03;;;1.92;;
8104;SDS011;4095;48.942;9.104;2022-09-20T11:52:40;4.80;;;1.70;;
8104;SDS011;4095;48.942;9.104;2022-09-20T11:55:28;3.97;;;1.70;;
8104;SDS011;4095;48.942;9.104;2022-09-20T11:58:12;5.20;;;1.40;;
8104;SDS011;4095;48.942;9.104;2022-09-20T12:00:45;4.13;;;1.45;;
8104;SDS011;4095;48.942;9.104;2022-09-20T12:03:20;4.05;;;1.58;;
8104;SDS011;4095;48.942;9.104;2022-09-20T12:05:57;4.22;;;1.60;;
8104;SDS011;4095;48.942;9.104;2022-09-20T12:08:35;5.43;;;1.70;;
8104;SDS011;4095;48.942;9.104;2022-09-20T12:11:08;3.03;;;1.40;;
8104;SDS011;4095;48.942;9.104;2022-09-20T12:13:38;4.35;;;1.58;;
8104;SDS011;4095;48.942;9.104;2022-09-20T12:16:15;3.20;;;1.35;;
8104;SDS011;4095;48.942;9.104;2022-09-20T12:21:24;5.13;;;1.92;;
8104;SDS011;4095;48.942;9.104;2022-09-20T12:28:50;2.85;;;1.27;;
8104;SDS011;4095;48.942;9.104;2022-09-20T12:39:23;3.95;;;1.73;;
8104;SDS011;4095;48.942;9.104;2022-09-20T12:47:28;3.90;;;1.55;;
8104;SDS011;4095;48.942;9.104;2022-09-20T12:49:57;4.68;;;1.75;;
8104;SDS011;4095;48.942;9.104;2022-09-20T12:58:02;6.75;;;1.98;;
8104;SDS011;4095;48.942;9.104;2022-09-20T13:03:00;3.87;;;1.93;;
8104;SDS011;4095;48.942;9.104;2022-09-20T13:08:31;5.53;;;2.40;;
8104;SDS011;4095;48.942;9.104;2022-09-20T13:11:18;7.03;;;2.30;;
8104;SDS011;4095;48.942;9.104;2022-09-20T13:13:56;6.93;;;2.10;;
8104;SDS011;4095;48.942;9.104;2022-09-20T13:16:29;4.60;;;2.03;;
8104;SDS011;4095;48.942;9.104;2022-09-20T13:19:01;5.97;;;1.90;;
8104;SDS011;4095;48.942;9.104;2022-09-20T13:21:33;6.50;;;1.80;;
8104;SDS011;4095;48.942;9.104;2022-09-20T13:24:02;6.70;;;2.07;;
8104;SDS011;4095;48.942;9.104;2022-09-20T13:26:32;5.57;;;1.97;;
8104;SDS011;4095;48.942;9.104;2022-09-20T13:29:03;7.43;;;1.90;;
8104;SDS011;4095;48.942;9.104;2022-09-20T13:31:33;4.80;;;2.10;;
8104;SDS011;4095;48.942;9.104;2022-09-20T13:34:19;3.90;;;2.00;;
8104;SDS011;4095;48.942;9.104;2022-09-20T13:36:47;5.23;;;2.10;;
8104;SDS011;4095;48.942;9.104;2022-09-20T13:39:22;6.23;;;2.63;;
8104;SDS011;4095;48.942;9.104;2022-09-20T13:41:51;3.63;;;1.90;;
8104;SDS011;4095;48.942;9.104;2022-09-20T13:44:16;5.23;;;1.90;;
8104;SDS011;4095;48.942;9.104;2022-09-20T13:46:43;4.43;;;1.97;;
8104;SDS011;4095;48.942;9.104;2022-09-20T13:51:41;3.40;;;1.50;;
8104;SDS011;4095;48.942;9.104;2022-09-20T13:54:27;4.13;;;1.70;;
8104;SDS011;4095;48.942;9.104;2022-09-20T13:56:55;4.17;;;1.87;;
8104;SDS011;4095;48.942;9.104;2022-09-20T13:59:25;4.60;;;1.60;;
8104;SDS011;4095;48.942;9.104;2022-09-20T14:02:00;4.40;;;1.80;;
8104;SDS011;4095;48.942;9.104;2022-09-20T14:04:27;2.73;;;1.43;;
8104;SDS011;4095;48.942;9.104;2022-09-20T14:06:55;3.77;;;2.20;;
8104;SDS011;4095;48.942;9.104;2022-09-20T14:09:27;5.87;;;2.13;;
8104;SDS011;4095;48.942;9.104;2022-09-20T14:11:56;3.63;;;1.87;;
8104;SDS011;4095;48.942;9.104;2022-09-20T14:14:23;3.97;;;2.03;;
8104;SDS011;4095;48.942;9.104;2022-09-20T14:16:50;4.57;;;2.10;;
8104;SDS011;4095;48.942;9.104;2022-09-20T14:19:19;3.50;;;2.00;;
8104;SDS011;4095;48.942;9.104;2022-09-20T14:21:47;3.10;;;1.87;;
8104;SDS011;4095;48.942;9.104;2022-09-20T14:26:59;2.17;;;1.50;;
8104;SDS011;4095;48.942;9.104;2022-09-20T14:30:01;3.60;;;1.70;;
8104;SDS011;4095;48.942;9.104;2022-09-20T14:32:32;3.23;;;1.87;;
8104;SDS011;4095;48.942;9.104;2022-09-20T14:35:04;2.43;;;1.60;;
8104;SDS011;4095;48.942;9.104;2022-09-20T14:37:46;2.57;;;1.60;;
8104;SDS011;4095;48.942;9.104;2022-09-20T14:42:47;2.73;;;1.27;;
8104;SDS011;4095;48.942;9.104;2022-09-20T14:45:20;4.37;;;1.47;;
8104;SDS011;4095;48.942;9.104;2022-09-20T14:47:58;2.27;;;1.30;;
8104;SDS011;4095;48.942;9.104;2022-09-20T14:50:30;2.47;;;1.60;;
8104;SDS011;4095;48.942;9.104;2022-09-20T14:53:01;3.20;;;1.50;;
8104;SDS011;4095;48.942;9.104;2022-09-20T14:55:31;1.83;;;1.30;;
8104;SDS011;4095;48.942;9.104;2022-09-20T14:58:02;2.23;;;1.20;;
8104;SDS011;4095;48.942;9.104;2022-09-20T15:00:47;2.43;;;1.23;;
8104;SDS011;4095;48.942;9.104;2022-09-20T15:03:16;1.93;;;1.40;;
8104;SDS011;4095;48.942;9.104;2022-09-20T15:05:58;1.97;;;1.37;;
8104;SDS011;4095;48.942;9.104;2022-09-20T15:08:23;2.57;;;1.40;;
8104;SDS011;4095;48.942;9.104;2022-09-20T15:10:49;2.40;;;1.57;;
8104;SDS011;4095;48.942;9.104;2022-09-20T15:13:15;1.77;;;1.60;;
8104;SDS011;4095;48.942;9.104;2022-09-20T15:15:41;3.60;;;1.90;;
8104;SDS011;4095;48.942;9.104;2022-09-20T15:18:11;1.83;;;1.40;;
8104;SDS011;4095;48.942;9.104;2022-09-20T15:20:44;2.90;;;1.43;;
8104;SDS011;4095;48.942;9.104;2022-09-20T15:23:10;3.00;;;1.37;;
8104;SDS011;4095;48.942;9.104;2022-09-20T15:25:35;1.93;;;1.30;;
8104;SDS011;4095;48.942;9.104;2022-09-20T15:28:01;2.73;;;1.73;;
8104;SDS011;4095;48.942;9.104;2022-09-20T15:30:27;2.33;;;1.47;;
8104;SDS011;4095;48.942;9.104;2022-09-20T15:32:52;1.63;;;1.30;;
8104;SDS011;4095;48.942;9.104;2022-09-20T15:35:18;2.20;;;1.30;;
8104;SDS011;4095;48.942;9.104;2022-09-20T15:37:43;2.37;;;1.50;;
8104;SDS011;4095;48.942;9.104;2022-09-20T15:40:09;5.03;;;1.53;;
8104;SDS011;4095;48.942;9.104;2022-09-20T15:42:35;3.33;;;2.10;;
8104;SDS011;4095;48.942;9.104;2022-09-20T15:45:11;3.23;;;1.80;;
8104;SDS011;4095;48.942;9.104;2022-09-20T15:47:37;2.07;;;1.60;;
8104;SDS011;4095;48.942;9.104;2022-09-20T15:50:04;2.20;;;1.40;;
8104;SDS011;4095;48.942;9.104;2022-09-20T15:52:32;2.27;;;1.57;;
8104;SDS011;4095;48.942;9.104;2022-09-20T15:55:01;3.83;;;1.80;;
8104;SDS011;4095;48.942;9.104;2022-09-20T15:57:28;3.30;;;2.03;;
8104;SDS011;4095;48.942;9.104;2022-09-20T15:59:54;2.20;;;2.00;;
8104;SDS011;4095;48.942;9.104;2022-09-20T16:02:20;4.00;;;2.53;;
8104;SDS011;4095;48.942;9.104;2022-09-20T16:04:46;3.57;;;2.20;;
8104;SDS011;4095;48.942;9.104;2022-09-20T16:07:11;3.77;;;2.30;;
8104;SDS011;4095;48.942;9.104;2022-09-20T16:09:38;5.10;;;3.70;;
8104;SDS011;4095;48.942;9.104;2022-09-20T16:12:03;4.87;;;3.40;;
8104;SDS011;4095;48.942;9.104;2022-09-20T16:14:30;6.40;;;4.17;;
8104;SDS011;4095;48.942;9.104;2022-09-20T16:16:55;5.60;;;3.60;;
8104;SDS011;4095;48.942;9.104;2022-09-20T16:19:21;4.10;;;3.70;;
8104;SDS011;4095;48.942;9.104;2022-09-20T16:21:48;5.17;;;3.10;;
8104;SDS011;4095;48.942;9.104;2022-09-20T16:24:18;3.90;;;2.80;;
8104;SDS011;4095;48.942;9.104;2022-09-20T16:26:46;2.80;;;2.20;;
8104;SDS011;4095;48.942;9.104;2022-09-20T16:29:11;4.10;;;2.57;;
8104;SDS011;4095;48.942;9.104;2022-09-20T16:31:38;3.57;;;2.17;;
8104;SDS011;4095;48.942;9.104;2022-09-20T16:34:06;2.93;;;2.10;;
8104;SDS011;4095;48.942;9.104;2022-09-20T16:39:15;3.23;;;2.70;;
8104;SDS011;4095;48.942;9.104;2022-09-20T16:41:42;3.03;;;2.53;;
8104;SDS011;4095;48.942;9.104;2022-09-20T16:44:10;5.17;;;2.60;;
8104;SDS011;4095;48.942;9.104;2022-09-20T16:46:37;4.17;;;2.20;;
8104;SDS011;4095;48.942;9.104;2022-09-20T16:49:12;5.00;;;2.40;;
8104;SDS011;4095;48.942;9.104;2022-09-20T16:51:38;3.47;;;2.00;;
8104;SDS011;4095;48.942;9.104;2022-09-20T16:54:07;4.30;;;2.07;;
8104;SDS011;4095;48.942;9.104;2022-09-20T16:56:38;3.80;;;2.20;;
8104;SDS011;4095;48.942;9.104;2022-09-20T16:59:05;4.97;;;2.50;;
8104;SDS011;4095;48.942;9.104;2022-09-20T17:01:32;5.80;;;2.20;;
8104;SDS011;4095;48.942;9.104;2022-09-20T17:03:58;5.97;;;2.60;;
8104;SDS011;4095;48.942;9.104;2022-09-20T17:06:25;4.17;;;2.10;;
8104;SDS011;4095;48.942;9.104;2022-09-20T17:08:54;3.67;;;2.20;;
8104;SDS011;4095;48.942;9.104;2022-09-20T17:11:23;4.90;;;2.40;;
8104;SDS011;4095;48.942;9.104;2022-09-20T17:13:50;4.30;;;2.33;;
8104;SDS011;4095;48.942;9.104;2022-09-20T17:16:18;3.50;;;2.10;;
8104;SDS011;4095;48.942;9.104;2022-09-20T17:18:52;5.10;;;2.30;;
8104;SDS011;4095;48.942;9.104;2022-09-20T17:21:31;4.30;;;2.60;;
8104;SDS011;4095;48.942;9.104;2022-09-20T17:23:59;3.77;;;2.20;;
8104;SDS011;4095;48.942;9.104;2022-09-20T17:26:28;5.50;;;2.60;;
8104;SDS011;4095;48.942;9.104;2022-09-20T17:28:57;4.00;;;2.37;;
8104;SDS011;4095;48.942;9.104;2022-09-20T17:31:25;4.20;;;3.07;;
8104;SDS011;4095;48.942;9.104;2022-09-20T17:33:55;7.47;;;3.67;;
8104;SDS011;4095;48.942;9.104;2022-09-20T17:36:24;5.10;;;3.50;;
8104;SDS011;4095;48.942;9.104;2022-09-20T17:38:52;3.97;;;2.70;;
8104;SDS011;4095;48.942;9.104;2022-09-20T17:41:19;5.20;;;3.00;;
8104;SDS011;4095;48.942;9.104;2022-09-20T17:43:45;4.23;;;2.80;;
8104;SDS011;4095;48.942;9.104;2022-09-20T17:48:39;4.93;;;3.07;;
8104;SDS011;4095;48.942;9.104;2022-09-20T17:51:06;3.77;;;2.70;;
8104;SDS011;4095;48.942;9.104;2022-09-20T17:53:34;3.47;;;2.60;;
8104;SDS011;4095;48.942;9.104;2022-09-20T17:56:00;4.27;;;2.47;;
8104;SDS011;4095;48.942;9.104;2022-09-20T17:58:27;4.43;;;2.80;;
8104;SDS011;4095;48.942;9.104;2022-09-20T18:00:53;4.20;;;2.77;;
8104;SDS011;4095;48.942;9.104;2022-09-20T18:03:20;4.13;;;2.80;;
8104;SDS011;4095;48.942;9.104;2022-09-20T18:05:50;5.40;;;3.37;;
8104;SDS011;4095;48.942;9.104;2022-09-20T18:08:16;5.67;;;3.60;;
8104;SDS011;4095;48.942;9.104;2022-09-20T18:10:57;6.50;;;4.00;;
8104;SDS011;4095;48.942;9.104;2022-09-20T18:13:23;6.03;;;4.17;;
8104;SDS011;4095;48.942;9.104;2022-09-20T18:15:51;7.90;;;5.70;;
8104;SDS011;4095;48.942;9.104;2022-09-20T18:18:17;9.97;;;6.27;;
8104;SDS011;4095;48.942;9.104;2022-09-20T18:20:44;7.70;;;6.13;;
8104;SDS011;4095;48.942;9.104;2022-09-20T18:23:09;9.33;;;6.50;;
8104;SDS011;4095;48.942;9.104;2022-09-20T18:25:35;8.30;;;6.33;;
8104;SDS011;4095;48.942;9.104;2022-09-20T18:28:21;6.57;;;4.77;;
8104;SDS011;4095;48.942;9.104;2022-09-20T18:30:46;6.80;;;4.63;;
8104;SDS011;4095;48.942;9.104;2022-09-20T18:33:14;5.07;;;4.10;;
8104;SDS011;4095;48.942;9.104;2022-09-20T18:35:40;4.27;;;3.50;;
8104;SDS011;4095;48.942;9.104;2022-09-20T18:38:06;5.37;;;4.27;;
8104;SDS011;4095;48.942;9.104;2022-09-20T18:40:36;5.20;;;4.07;;
8104;SDS011;4095;48.942;9.104;2022-09-20T18:43:02;5.97;;;4.13;;
8104;SDS011;4095;48.942;9.104;2022-09-20T18:45:29;5.43;;;3.40;;
8104;SDS011;4095;48.942;9.104;2022-09-20T18:47:54;7.57;;;4.17;;
8104;SDS011;4095;48.942;9.104;2022-09-20T18:50:23;6.47;;;3.73;;
8104;SDS011;4095;48.942;9.104;2022-09-20T18:52:53;5.23;;;3.50;;
8104;SDS011;4095;48.942;9.104;2022-09-20T18:55:19;6.33;;;3.50;;
8104;SDS011;4095;48.942;9.104;2022-09-20T18:57:46;8.27;;;4.97;;
8104;SDS011;4095;48.942;9.104;2022-09-20T19:00:12;5.40;;;3.93;;
8104;SDS011;4095;48.942;9.104;2022-09-20T19:05:09;9.60;;;6.43;;
8104;SDS011;4095;48.942;9.104;2022-09-20T19:08:00;6.13;;;4.90;;
8104;SDS011;4095;48.942;9.104;2022-09-20T19:10:40;10.53;;;9.10;;
8104;SDS011;4095;48.942;9.104;2022-09-20T19:13:19;9.27;;;6.13;;
8104;SDS011;4095;48.942;9.104;2022-09-20T19:27:30;9.00;;;6.87;;
8104;SDS011;4095;48.942;9.104;2022-09-20T19:29:55;11.57;;;6.20;;
8104;SDS011;4095;48.942;9.104;2022-09-20T19:32:21;8.47;;;7.13;;
8104;SDS011;4095;48.942;9.104;2022-09-20T19:34:50;9.33;;;4.97;;
8104;SDS011;4095;48.942;9.104;2022-09-20T19:37:29;6.70;;;3.97;;
8104;SDS011;4095;48.942;9.104;2022-09-20T19:48:54;5.83;;;4.00;;
8104;SDS011;4095;48.942;9.104;2022-09-20T19:51:31;5.60;;;4.20;;
8104;SDS011;4095;48.942;9.104;2022-09-20T19:54:01;7.47;;;4.27;;
8104;SDS011;4095;48.942;9.104;2022-09-20T19:56:27;10.27;;;6.13;;
8104;SDS011;4095;48.942;9.104;2022-09-20T19:59:07;9.33;;;6.23;;
8104;SDS011;4095;48.942;9.104;2022-09-20T20:01:33;8.23;;;5.80;;
8104;SDS011;4095;48.942;9.104;2022-09-20T20:03:59;6.43;;;4.80;;
8104;SDS011;4095;48.942;9.104;2022-09-20T20:06:26;7.37;;;4.40;;
8104;SDS011;4095;48.942;9.104;2022-09-20T20:17:35;5.30;;;4.00;;
8104;SDS011;4095;48.942;9.104;2022-09-20T20:26:07;5.27;;;3.47;;
8104;SDS011;4095;48.942;9.104;2022-09-20T20:28:37;5.60;;;3.80;;
8104;SDS011;4095;48.942;9.104;2022-09-20T20:31:03;4.70;;;3.60;;
8104;SDS011;4095;48.942;9.104;2022-09-20T20:33:29;8.40;;;4.10;;
8104;SDS011;4095;48.942;9.104;2022-09-20T20:35:56;7.30;;;4.60;;
8104;SDS011;4095;48.942;9.104;2022-09-20T20:38:23;7.20;;;4.40;;
8104;SDS011;4095;48.942;9.104;2022-09-20T20:41:06;6.60;;;4.47;;
8104;SDS011;4095;48.942;9.104;2022-09-20T20:43:39;6.87;;;5.40;;
8104;SDS011;4095;48.942;9.104;2022-09-20T20:46:07;9.17;;;5.73;;
8104;SDS011;4095;48.942;9.104;2022-09-20T20:48:38;8.93;;;5.30;;
8104;SDS011;4095;48.942;9.104;2022-09-20T20:51:08;9.77;;;6.07;;
8104;SDS011;4095;48.942;9.104;2022-09-20T20:53:41;10.97;;;6.00;;
8104;SDS011;4095;48.942;9.104;2022-09-20T20:56:13;7.20;;;4.93;;
8104;SDS011;4095;48.942;9.104;2022-09-20T20:58:41;7.67;;;4.60;;
8104;SDS011;4095;48.942;9.104;2022-09-20T21:01:09;8.77;;;5.03;;
8104;SDS011;4095;48.942;9.104;2022-09-20T21:03:40;7.63;;;5.27;;
8104;SDS011;4095;48.942;9.104;2022-09-20T21:06:10;5.90;;;4.70;;
8104;SDS011;4095;48.942;9.104;2022-09-20T21:08:37;5.63;;;4.20;;
8104;SDS011;4095;48.942;9.104;2022-09-20T21:11:08;6.93;;;4.30;;